Time;durP1;ratioP1;P1;durP2;ratioP2;P2;SDS_P1;SDS_P2;PMS_P1;PMS_P2;Temp;Humidity;BMP_temperature;BMP_pressure;BME280_temperature;BME280_humidity;BME280_pressure;Samples;Min_cycle;Max_cycle;Signal;HPM_P1;HPM_P2
2021/07/18 00:01:40;;;;;;;20.12;10.82;;;;;;;31.79;48.54;100740.73;1600266;88;21067;-47
2021/07/18 00:04:07;;;;;;;14.75;10.43;;;;;;;31.77;48.75;100742.75;1618772;87;21003;-47
2021/07/18 00:06:35;;;;;;;12.85;10.50;;;;;;;31.75;48.71;100746.13;1637255;86;21040;-52
2021/07/18 00:09:06;;;;;;;13.53;11.08;;;;;;;31.75;48.86;100742.08;1630643;86;21058;-49
2021/07/18 00:11:33;;;;;;;14.93;11.70;;;;;;;31.75;49.13;100747.47;1639627;86;21083;-47
2021/07/18 00:14:02;;;;;;;23.38;11.38;;;;;;;31.74;49.44;100748.45;1664083;85;21143;-49
2021/07/18 00:16:28;;;;;;;12.90;11.55;;;;;;;31.72;49.92;100755.86;1626425;88;21553;-49
2021/07/18 00:18:56;;;;;;;17.05;11.80;;;;;;;31.71;50.36;100754.69;1632353;86;21112;-47
2021/07/18 00:21:23;;;;;;;14.83;11.28;;;;;;;31.72;50.58;100753.17;1617408;87;21061;-49
2021/07/18 00:23:49;;;;;;;12.07;10.70;;;;;;;31.71;50.67;100756.04;1638967;87;21219;-48
2021/07/18 00:26:17;;;;;;;15.60;11.08;;;;;;;31.67;50.72;100756.89;1633349;86;21042;-48
2021/07/18 00:28:44;;;;;;;16.93;10.80;;;;;;;31.64;50.78;100755.86;1611827;88;21072;-47
2021/07/18 00:31:10;;;;;;;17.17;11.40;;;;;;;31.61;50.78;100745.46;1616122;88;21070;-49
2021/07/18 00:33:37;;;;;;;18.62;11.57;;;;;;;31.60;50.62;100749.14;1639388;87;21547;-49
2021/07/18 00:36:05;;;;;;;13.38;11.48;;;;;;;31.61;50.56;100756.22;1621050;86;21029;-48
2021/07/18 00:38:32;;;;;;;16.95;11.85;;;;;;;31.59;50.63;100754.20;1614570;87;21057;-49
2021/07/18 00:40:58;;;;;;;16.37;12.07;;;;;;;31.59;51.03;100744.79;1613067;87;21030;-49
2021/07/18 00:43:25;;;;;;;17.02;11.05;;;;;;;31.59;51.33;100741.25;1618777;87;21018;-48
2021/07/18 00:45:58;;;;;;;16.70;11.88;;;;;;;31.59;51.52;100739.91;1612400;88;21054;-47
2021/07/18 00:48:27;;;;;;;16.73;11.20;;;;;;;31.58;51.63;100745.78;1587898;89;21030;-48
2021/07/18 00:50:55;;;;;;;12.43;10.58;;;;;;;31.57;51.68;100742.77;1581890;90;21086;-49
2021/07/18 00:53:22;;;;;;;13.05;11.25;;;;;;;31.56;51.74;100751.83;1618365;87;21565;-49
2021/07/18 00:55:51;;;;;;;17.65;10.43;;;;;;;31.54;51.90;100755.20;1618821;87;21073;-47
2021/07/18 00:58:18;;;;;;;13.32;10.75;;;;;;;31.53;51.97;100758.87;1594116;89;21153;-49
2021/07/18 01:00:47;;;;;;;15.20;10.93;;;;;;;31.51;51.85;100750.14;1580304;90;21658;-49
2021/07/18 01:03:15;;;;;;;16.55;10.45;;;;;;;31.49;51.71;100752.16;1607928;88;21095;-50
2021/07/18 01:05:42;;;;;;;15.68;10.20;;;;;;;31.47;51.65;100752.02;1591666;89;21582;-50
2021/07/18 01:08:08;;;;;;;10.65;9.55;;;;;;;31.44;51.60;100754.52;1617388;88;21122;-50
2021/07/18 01:10:38;;;;;;;11.50;10.05;;;;;;;31.42;51.57;100751.66;1569410;89;21077;-49
2021/07/18 01:13:05;;;;;;;10.90;9.80;;;;;;;31.41;51.65;100754.84;1618300;88;21038;-49
2021/07/18 01:15:32;;;;;;;15.43;10.40;;;;;;;31.38;51.77;100751.12;1620356;87;21534;-48
2021/07/18 01:17:58;;;;;;;15.30;11.65;;;;;;;31.38;51.92;100755.16;1620304;88;21046;-48
2021/07/18 01:20:25;;;;;;;12.13;10.85;;;;;;;31.37;51.82;100753.47;1619312;86;21043;-49
2021/07/18 01:22:52;;;;;;;15.75;11.22;;;;;;;31.36;51.68;100754.98;1616625;88;21569;-49
2021/07/18 01:25:19;;;;;;;12.00;10.28;;;;;;;31.35;51.59;100750.11;1596987;88;21119;-47
2021/07/18 01:27:46;;;;;;;16.02;10.32;;;;;;;31.35;51.59;100756.83;1617185;88;21093;-48
2021/07/18 01:30:13;;;;;;;14.98;10.78;;;;;;;31.34;51.64;100756.50;1599083;89;21057;-49
2021/07/18 01:32:42;;;;;;;19.37;11.08;;;;;;;31.32;51.73;100761.20;1598315;89;21513;-47
2021/07/18 01:35:11;;;;;;;13.93;10.72;;;;;;;31.31;51.75;100767.58;1598699;89;21120;-47
2021/07/18 01:37:39;;;;;;;16.07;12.25;;;;;;;31.28;51.72;100768.74;1599858;89;21068;-49
2021/07/18 01:40:08;;;;;;;12.20;10.95;;;;;;;31.28;51.64;100773.30;1598177;89;21116;-47
2021/07/18 01:42:35;;;;;;;13.88;10.98;;;;;;;31.26;51.58;100778.00;1598306;89;21111;-50
2021/07/18 01:45:03;;;;;;;21.50;11.38;;;;;;;31.24;51.63;100773.30;1595067;89;21069;-50
2021/07/18 01:47:30;;;;;;;11.40;10.23;;;;;;;31.22;51.49;100769.94;1568899;90;21559;-48
2021/07/18 01:49:57;;;;;;;11.30;10.20;;;;;;;31.20;51.26;100769.27;1569455;90;21614;-52
2021/07/18 01:52:23;;;;;;;20.23;10.05;;;;;;;31.18;51.25;100767.24;1565771;91;21095;-48
2021/07/18 01:54:52;;;;;;;10.93;9.93;;;;;;;31.16;51.23;100766.56;1592765;87;21050;-55
2021/07/18 01:57:18;;;;;;;13.00;10.68;;;;;;;31.14;51.22;100765.89;1586085;88;21051;-50
2021/07/18 01:59:46;;;;;;;10.93;9.30;;;;;;;31.05;51.25;100765.02;1638720;86;21138;-49
2021/07/18 02:02:14;;;;;;;12.30;9.98;;;;;;;31.01;51.29;100761.48;1640799;86;21088;-49
2021/07/18 02:04:41;;;;;;;11.97;10.20;;;;;;;31.05;51.09;100766.86;1557510;91;21106;-49
2021/07/18 02:07:08;;;;;;;14.23;9.90;;;;;;;31.06;51.15;100772.06;1587140;89;21103;-49
2021/07/18 02:09:36;;;;;;;12.98;10.00;;;;;;;31.06;51.30;100771.22;1592982;89;21064;-48
2021/07/18 02:12:07;;;;;;;11.90;10.08;;;;;;;31.05;51.60;100770.89;1557686;91;21071;-49
2021/07/18 02:14:38;;;;;;;12.43;10.58;;;;;;;31.06;51.79;100776.59;1589634;89;21615;-50
2021/07/18 02:17:05;;;;;;;12.78;10.03;;;;;;;31.03;51.68;100777.79;1595259;88;21200;-53
2021/07/18 02:19:32;;;;;;;13.70;10.13;;;;;;;31.02;51.65;100772.55;1604967;88;21080;-48
2021/07/18 02:21:58;;;;;;;10.98;9.88;;;;;;;31.00;51.66;100777.25;1602232;89;21044;-49
2021/07/18 02:24:26;;;;;;;12.33;9.68;;;;;;;30.99;51.57;100778.27;1571701;90;21138;-53
2021/07/18 02:26:54;;;;;;;13.70;10.18;;;;;;;30.99;50.97;100775.59;1578503;90;21132;-52
2021/07/18 02:29:21;;;;;;;14.13;9.60;;;;;;;30.98;50.92;100780.61;1570973;89;21025;-51
2021/07/18 02:31:48;;;;;;;11.22;9.83;;;;;;;30.96;50.97;100781.27;1568735;90;21146;-48
2021/07/18 02:34:15;;;;;;;12.03;9.40;;;;;;;30.93;50.90;100786.98;1585120;90;21196;-52
2021/07/18 02:36:42;;;;;;;10.70;8.93;;;;;;;30.90;50.84;100787.30;1561902;91;21085;-51
2021/07/18 02:39:09;;;;;;;10.32;9.35;;;;;;;30.89;51.02;100784.29;1553092;91;21547;-48
2021/07/18 02:41:37;;;;;;;12.20;9.90;;;;;;;30.88;51.12;100783.94;1558899;91;21160;-48
2021/07/18 02:44:07;;;;;;;11.90;9.78;;;;;;;30.87;50.81;100786.30;1571464;90;21109;-47
2021/07/18 02:46:35;;;;;;;11.50;10.30;;;;;;;30.84;50.89;100795.98;1565732;90;21183;-50
2021/07/18 02:49:03;;;;;;;13.25;9.93;;;;;;;30.82;51.02;100797.98;1552410;90;21106;-51
2021/07/18 02:51:30;;;;;;;11.30;10.03;;;;;;;30.79;51.35;100799.15;1576486;90;21034;-49
2021/07/18 02:53:57;;;;;;;14.10;10.05;;;;;;;30.78;51.28;100796.63;1601112;89;21109;-47
2021/07/18 02:56:24;;;;;;;13.55;10.38;;;;;;;30.74;51.26;100795.27;1598622;89;21058;-49
2021/07/18 02:58:51;;;;;;;12.82;10.82;;;;;;;30.72;51.28;100798.12;1594887;89;21499;-50
2021/07/18 03:01:19;;;;;;;16.62;10.68;;;;;;;30.71;51.18;100798.30;1603355;89;21067;-48
2021/07/18 03:03:45;;;;;;;10.68;9.65;;;;;;;30.67;51.18;100789.70;1623728;87;21038;-47
2021/07/18 03:06:12;;;;;;;12.15;9.78;;;;;;;30.65;50.95;100793.54;1609072;87;21371;-48
2021/07/18 03:08:39;;;;;;;11.70;10.20;;;;;;;30.64;50.98;100797.25;1610822;87;21009;-46
2021/07/18 03:11:06;;;;;;;12.15;10.50;;;;;;;30.64;51.07;100798.59;1575824;89;21029;-50
2021/07/18 03:13:32;;;;;;;14.15;10.78;;;;;;;30.64;51.36;100795.41;1599099;88;21553;-49
2021/07/18 03:15:59;;;;;;;11.73;10.50;;;;;;;30.66;51.52;100800.12;1611574;88;21077;-47
2021/07/18 03:18:27;;;;;;;11.60;10.45;;;;;;;30.68;51.65;100799.95;1638015;86;21052;-48
2021/07/18 03:20:54;;;;;;;14.00;10.65;;;;;;;30.70;51.83;100800.14;1637439;87;21047;-49
2021/07/18 03:23:22;;;;;;;17.05;9.95;;;;;;;30.72;51.86;100797.28;1622234;88;21524;-51
2021/07/18 03:25:48;;;;;;;22.10;10.43;;;;;;;30.73;51.81;100790.92;1639718;87;21080;-48
2021/07/18 03:28:15;;;;;;;11.50;10.40;;;;;;;30.73;51.80;100793.08;1623148;87;21563;-50
2021/07/18 03:30:42;;;;;;;13.60;10.32;;;;;;;30.76;51.62;100799.98;1617328;87;21082;-48
2021/07/18 03:33:08;;;;;;;12.50;10.93;;;;;;;30.77;51.61;100795.78;1624511;87;21091;-48
2021/07/18 03:35:35;;;;;;;13.10;10.55;;;;;;;30.79;51.66;100796.98;1627035;87;21136;-49
2021/07/18 03:38:02;;;;;;;20.43;11.97;;;;;;;30.82;51.68;100797.98;1639063;86;21032;-49
2021/07/18 03:40:28;;;;;;;16.00;10.60;;;;;;;30.87;51.76;100802.42;1622099;87;21054;-48
2021/07/18 03:42:56;;;;;;;18.07;11.43;;;;;;;30.95;51.69;100803.80;1639593;87;21034;-47
2021/07/18 03:45:23;;;;;;;13.55;10.32;;;;;;;31.05;51.60;100803.14;1640086;87;21615;-48
2021/07/18 03:47:50;;;;;;;14.03;10.78;;;;;;;31.23;51.47;100806.55;1626382;88;21026;-47
2021/07/18 03:50:16;;;;;;;19.67;11.15;;;;;;;31.50;51.09;100810.34;1640608;87;21119;-48
2021/07/18 03:52:43;;;;;;;159.60;24.60;;;;;;;31.81;50.24;100804.64;1626985;87;21065;-49
2021/07/18 03:55:11;;;;;;;71.25;15.25;;;;;;;32.15;49.40;100811.18;1636992;86;21088;-48
2021/07/18 03:57:38;;;;;;;68.47;15.03;;;;;;;32.40;48.74;100803.89;1637356;86;21059;-48
2021/07/18 04:00:07;;;;;;;37.25;13.38;;;;;;;32.58;48.34;100800.53;1627109;86;21073;-52
2021/07/18 04:02:34;;;;;;;13.35;11.43;;;;;;;32.74;47.95;100804.50;1641811;87;21000;-49
2021/07/18 04:05:01;;;;;;;13.78;12.00;;;;;;;32.89;47.51;100801.41;1620119;87;21071;-52
2021/07/18 04:07:32;;;;;;;18.65;12.35;;;;;;;32.98;47.10;100811.66;1639977;87;21107;-48
2021/07/18 04:09:58;;;;;;;16.55;12.35;;;;;;;33.00;46.89;100802.38;1635512;87;21232;-51
2021/07/18 04:12:25;;;;;;;25.30;12.75;;;;;;;32.96;46.84;100807.77;1625226;88;21097;-52
2021/07/18 04:14:52;;;;;;;18.65;12.35;;;;;;;32.84;47.00;100808.67;1639641;87;21563;-49
2021/07/18 04:17:18;;;;;;;21.93;12.45;;;;;;;32.70;47.27;100812.11;1638992;87;21052;-48
2021/07/18 04:19:45;;;;;;;122.05;18.73;;;;;;;32.55;47.74;100813.83;1611706;87;21592;-52
2021/07/18 04:22:12;;;;;;;18.92;11.28;;;;;;;32.43;48.09;100818.38;1639894;86;21055;-49
2021/07/18 04:24:39;;;;;;;19.52;11.70;;;;;;;32.31;48.39;100819.26;1641249;86;21052;-50
2021/07/18 04:27:06;;;;;;;20.05;12.30;;;;;;;32.21;48.66;100815.06;1640146;87;21154;-47
2021/07/18 04:29:32;;;;;;;25.97;12.60;;;;;;;32.12;48.92;100818.77;1628094;87;21050;-49
2021/07/18 04:31:59;;;;;;;15.18;12.40;;;;;;;32.05;49.09;100819.95;1627216;87;21081;-50
2021/07/18 04:34:26;;;;;;;15.28;11.80;;;;;;;31.98;49.19;100816.27;1627473;86;21082;-47
2021/07/18 04:36:54;;;;;;;15.95;12.60;;;;;;;31.92;49.24;100820.42;1595657;88;21101;-51
2021/07/18 04:39:21;;;;;;;16.00;11.60;;;;;;;31.88;49.36;100817.73;1618526;87;21026;-48
2021/07/18 04:41:48;;;;;;;13.62;11.73;;;;;;;31.86;49.46;100815.72;1638716;87;21047;-54
2021/07/18 04:44:15;;;;;;;16.00;11.85;;;;;;;31.83;49.54;100814.73;1616809;85;21573;-53
2021/07/18 04:46:43;;;;;;;15.93;12.30;;;;;;;31.83;49.80;100812.53;1637817;87;21083;-50
2021/07/18 04:49:10;;;;;;;12.82;11.53;;;;;;;31.81;49.93;100814.05;1632027;86;21003;-51
2021/07/18 04:51:37;;;;;;;16.05;11.57;;;;;;;31.79;49.89;100812.04;1640296;86;21066;-49
2021/07/18 04:54:04;;;;;;;12.85;11.55;;;;;;;31.79;49.92;100809.34;1630648;86;21054;-47
2021/07/18 04:56:30;;;;;;;15.58;11.68;;;;;;;31.77;50.00;100808.67;1631691;86;21085;-48
2021/07/18 04:58:57;;;;;;;16.52;11.43;;;;;;;31.77;50.07;100806.48;1618935;87;21088;-50
2021/07/18 05:01:24;;;;;;;13.15;11.80;;;;;;;31.78;50.20;100811.69;1618044;88;21121;-47
2021/07/18 05:03:50;;;;;;;20.90;12.28;;;;;;;31.77;50.05;100817.25;1637195;86;21001;-48
2021/07/18 05:06:17;;;;;;;13.50;11.30;;;;;;;31.76;50.21;100818.23;1618514;87;21026;-51
2021/07/18 05:08:44;;;;;;;13.90;12.37;;;;;;;31.76;50.24;100819.09;1637392;86;21028;-48
2021/07/18 05:11:11;;;;;;;33.98;13.90;;;;;;;31.75;50.35;100821.45;1633490;86;21085;-48
2021/07/18 05:13:38;;;;;;;17.50;11.33;;;;;;;31.74;50.55;100819.77;1631057;86;21050;-48
2021/07/18 05:16:06;;;;;;;13.32;11.75;;;;;;;31.76;50.61;100823.13;1642818;86;21030;-49
2021/07/18 05:18:32;;;;;;;16.00;12.03;;;;;;;31.78;50.62;100817.06;1631190;87;21074;-48
2021/07/18 05:20:59;;;;;;;127.12;20.48;;;;;;;31.83;50.61;100822.80;1624234;85;21566;-51
2021/07/18 05:23:26;;;;;;;19.70;15.05;;;;;;;31.93;50.49;100825.34;1637127;87;21059;-48
2021/07/18 05:25:54;;;;;;;22.85;12.25;;;;;;;32.01;50.41;100826.19;1626386;88;21026;-47
2021/07/18 05:28:21;;;;;;;15.15;11.20;;;;;;;32.12;50.17;100826.84;1643709;86;21534;-49
2021/07/18 05:31:06;;;;;;;20.70;11.45;;;;;;;32.20;49.99;100827.68;1619335;86;21008;-49
2021/07/18 05:33:33;;;;;;;12.37;11.28;;;;;;;32.26;49.83;100827.00;1623271;86;21067;-48
2021/07/18 05:36:02;;;;;;;14.15;11.30;;;;;;;32.33;49.57;100827.16;1623591;86;21164;-50
2021/07/18 05:38:29;;;;;;;18.90;11.65;;;;;;;32.39;49.69;100827.81;1639033;86;21082;-48
2021/07/18 05:40:55;;;;;;;19.70;11.80;;;;;;;32.46;49.83;100827.51;1615244;88;21200;-47
2021/07/18 05:43:22;;;;;;;14.03;12.07;;;;;;;32.54;49.63;100826.95;1598900;88;21006;-53
2021/07/18 05:45:49;;;;;;;15.65;12.63;;;;;;;32.66;49.64;100827.44;1616364;88;21093;-49
2021/07/18 05:48:21;;;;;;;13.15;11.80;;;;;;;32.76;49.24;100832.12;1617266;88;21046;-50
2021/07/18 05:50:47;;;;;;;22.23;13.30;;;;;;;32.84;48.99;100830.73;1622123;88;21116;-53
2021/07/18 05:53:15;;;;;;;18.05;13.10;;;;;;;32.91;48.73;100834.42;1626684;87;21062;-54
2021/07/18 05:55:41;;;;;;;19.45;12.65;;;;;;;32.95;48.50;100834.41;1621709;87;21056;-51
2021/07/18 05:58:08;;;;;;;18.17;13.98;;;;;;;33.01;48.49;100836.43;1628446;88;21078;-50
2021/07/18 06:00:35;;;;;;;15.25;12.90;;;;;;;33.07;48.50;100836.22;1604779;88;21080;-51
2021/07/18 06:03:02;;;;;;;20.82;13.93;;;;;;;33.12;48.39;100841.41;1606645;88;21102;-51
2021/07/18 06:05:30;;;;;;;17.42;13.40;;;;;;;33.18;48.14;100835.30;1638559;87;21047;-49
2021/07/18 06:07:58;;;;;;;20.52;14.40;;;;;;;33.26;47.90;100839.84;1618883;87;21070;-49
2021/07/18 06:10:25;;;;;;;15.25;13.58;;;;;;;33.33;47.68;100833.55;1640137;86;21508;-52
2021/07/18 06:12:52;;;;;;;15.45;13.18;;;;;;;33.39;47.59;100838.23;1614135;87;21034;-49
2021/07/18 06:15:19;;;;;;;19.07;13.20;;;;;;;33.45;47.62;100833.97;1628217;86;21531;-50
2021/07/18 06:17:46;;;;;;;21.02;12.65;;;;;;;33.52;47.68;100835.82;1623988;85;21104;-52
2021/07/18 06:20:14;;;;;;;13.72;12.03;;;;;;;33.60;47.42;100834.91;1630727;86;21629;-50
2021/07/18 06:22:40;;;;;;;15.23;13.78;;;;;;;33.69;47.11;100837.05;1631306;87;20998;-49
2021/07/18 06:25:09;;;;;;;13.28;11.30;;;;;;;33.77;46.58;100841.88;1617811;87;21210;-51
2021/07/18 06:27:39;;;;;;;12.18;10.80;;;;;;;33.85;46.05;100839.11;1617027;87;21034;-50
2021/07/18 06:30:06;;;;;;;12.37;10.20;;;;;;;33.89;45.17;100840.42;1618103;87;21022;-53
2021/07/18 06:32:33;;;;;;;16.15;10.15;;;;;;;33.93;45.35;100839.55;1629902;86;21075;-49
2021/07/18 06:35:00;;;;;;;14.58;10.32;;;;;;;33.94;44.87;100841.23;1630561;85;21097;-49
2021/07/18 06:37:26;;;;;;;15.20;10.40;;;;;;;33.93;44.83;100840.89;1638413;86;21108;-51
2021/07/18 06:39:55;;;;;;;14.07;12.40;;;;;;;33.90;45.20;100835.88;1639214;86;21101;-50
2021/07/18 06:42:22;;;;;;;11.78;10.53;;;;;;;33.87;45.46;100837.57;1607933;88;21037;-55
2021/07/18 06:44:49;;;;;;;14.85;12.28;;;;;;;33.86;45.69;100843.47;1639068;86;21028;-49
2021/07/18 06:47:16;;;;;;;40.38;14.05;;;;;;;33.84;46.08;100839.30;1626422;86;21100;-50
2021/07/18 06:49:42;;;;;;;17.37;13.30;;;;;;;33.82;46.63;100835.41;1618198;87;21087;-51
2021/07/18 06:52:09;;;;;;;16.00;11.15;;;;;;;33.82;46.82;100842.69;1613241;88;21074;-50
2021/07/18 06:54:36;;;;;;;13.40;11.55;;;;;;;33.80;47.14;100839.33;1642539;87;21573;-49
2021/07/18 06:57:03;;;;;;;23.62;19.57;;;;;;;33.80;47.36;100844.20;1636949;87;21063;-50
2021/07/18 06:59:30;;;;;;;13.55;11.33;;;;;;;33.79;47.67;100839.84;1641932;86;21011;-50
2021/07/18 07:01:56;;;;;;;21.70;12.30;;;;;;;33.80;47.89;100846.08;1645635;87;21034;-49
2021/07/18 07:04:23;;;;;;;22.62;14.20;;;;;;;33.81;48.49;100846.40;1607846;88;21085;-51
2021/07/18 07:06:50;;;;;;;37.48;28.25;;;;;;;33.80;48.85;100846.08;1637877;87;21037;-48
2021/07/18 07:09:17;;;;;;;21.52;18.50;;;;;;;33.81;48.97;100847.74;1637378;87;21065;-50
2021/07/18 07:11:44;;;;;;;25.08;17.55;;;;;;;33.83;48.84;100848.41;1605662;88;21038;-49
2021/07/18 07:14:11;;;;;;;41.85;30.10;;;;;;;33.86;49.04;100850.75;1620419;88;22214;-48
2021/07/18 07:16:38;;;;;;;86.53;64.32;;;;;;;33.88;48.95;100852.77;1637814;87;21106;-52
2021/07/18 07:19:05;;;;;;;68.00;47.83;;;;;;;33.90;48.94;100853.42;1631849;86;21602;-47
2021/07/18 07:21:32;;;;;;;71.12;45.58;;;;;;;33.92;49.09;100859.48;1637351;86;21082;-50
2021/07/18 07:23:59;;;;;;;36.10;23.65;;;;;;;33.94;49.19;100856.09;1638256;86;21521;-48
2021/07/18 07:26:26;;;;;;;19.52;17.15;;;;;;;33.96;49.06;100862.14;1640598;87;21071;-50
2021/07/18 07:28:53;;;;;;;16.25;14.65;;;;;;;33.98;48.82;100860.10;1636919;87;21059;-47
2021/07/18 07:31:20;;;;;;;26.93;19.00;;;;;;;33.99;48.82;100858.59;1624498;88;21061;-47
2021/07/18 07:33:47;;;;;;;52.05;40.98;;;;;;;34.01;49.13;100866.50;1637909;86;21073;-49
2021/07/18 07:36:18;;;;;;;23.10;17.05;;;;;;;34.01;49.13;100859.75;1630562;86;21092;-47
2021/07/18 07:38:45;;;;;;;61.53;50.43;;;;;;;34.01;49.02;100861.10;1620983;87;21140;-52
2021/07/18 07:41:12;;;;;;;38.45;29.30;;;;;;;33.99;49.03;100857.24;1607478;88;21010;-48
2021/07/18 07:43:39;;;;;;;29.37;17.87;;;;;;;33.99;49.03;100860.41;1620842;87;21018;-48
2021/07/18 07:46:07;;;;;;;19.50;17.32;;;;;;;33.96;48.98;100860.80;1618318;87;21098;-47
2021/07/18 07:48:34;;;;;;;19.10;15.85;;;;;;;33.94;49.32;100854.23;1636409;86;21023;-48
2021/07/18 07:51:02;;;;;;;22.20;13.50;;;;;;;33.92;49.49;100863.53;1637330;87;21043;-51
2021/07/18 07:53:28;;;;;;;15.18;13.48;;;;;;;33.89;49.20;100861.17;1646459;86;20998;-48
2021/07/18 07:55:55;;;;;;;18.85;15.15;;;;;;;33.84;49.20;100862.25;1615866;87;21119;-52
2021/07/18 07:58:22;;;;;;;17.32;14.45;;;;;;;33.83;49.42;100865.95;1618903;87;21082;-47
2021/07/18 08:00:50;;;;;;;24.18;14.10;;;;;;;33.82;49.41;100869.16;1636792;87;21102;-48
2021/07/18 08:03:17;;;;;;;18.42;13.65;;;;;;;33.81;49.35;100874.23;1621522;86;21033;-48
2021/07/18 08:05:44;;;;;;;22.25;15.20;;;;;;;33.81;49.65;100874.23;1629342;87;21028;-50
2021/07/18 08:08:12;;;;;;;16.50;13.40;;;;;;;33.81;49.58;100869.34;1639714;87;21056;-49
2021/07/18 08:10:39;;;;;;;15.60;14.00;;;;;;;33.83;49.26;100871.34;1628882;86;21104;-49
2021/07/18 08:13:06;;;;;;;18.17;14.63;;;;;;;33.83;49.30;100874.89;1625126;87;21956;-49
2021/07/18 08:15:32;;;;;;;16.55;14.28;;;;;;;33.85;49.51;100878.75;1634663;86;21075;-49
2021/07/18 08:17:59;;;;;;;16.23;14.55;;;;;;;33.85;49.61;100876.05;1623211;86;21081;-49
2021/07/18 08:20:27;;;;;;;18.35;14.18;;;;;;;33.85;49.22;100882.80;1608690;87;21032;-50
2021/07/18 08:22:55;;;;;;;15.25;13.75;;;;;;;33.83;49.22;100878.09;1608133;88;21046;-49
2021/07/18 08:25:24;;;;;;;15.50;13.88;;;;;;;33.83;49.11;100880.80;1594951;88;21064;-49
2021/07/18 08:27:51;;;;;;;16.95;14.47;;;;;;;33.80;48.90;100885.22;1632169;86;21031;-47
2021/07/18 08:30:18;;;;;;;14.35;12.82;;;;;;;33.76;48.97;100877.97;1625464;87;21045;-48
2021/07/18 08:32:44;;;;;;;13.65;12.33;;;;;;;33.78;48.83;100880.52;1629902;87;21052;-48
2021/07/18 08:35:12;;;;;;;14.80;13.32;;;;;;;33.80;49.02;100886.04;1640961;87;21095;-45
2021/07/18 08:37:39;;;;;;;15.23;13.60;;;;;;;33.86;49.03;100888.55;1617146;88;21081;-49
2021/07/18 08:40:08;;;;;;;15.40;12.82;;;;;;;33.90;48.76;100876.37;1619134;88;21023;-45
2021/07/18 08:42:36;;;;;;;14.85;12.73;;;;;;;33.97;48.66;100884.05;1617656;88;21046;-48
2021/07/18 08:45:05;;;;;;;13.48;12.07;;;;;;;34.04;48.38;100876.45;1607518;87;21534;-48
2021/07/18 08:47:32;;;;;;;13.40;12.10;;;;;;;34.10;48.36;100885.68;1611022;88;21086;-50
2021/07/18 08:49:59;;;;;;;14.73;13.25;;;;;;;34.16;48.47;100883.59;1622821;88;21014;-49
2021/07/18 08:52:26;;;;;;;14.23;12.35;;;;;;;34.20;48.72;100884.91;1618488;88;21077;-49
2021/07/18 08:54:54;;;;;;;18.75;13.62;;;;;;;34.23;48.63;100879.16;1640357;86;21114;-47
2021/07/18 08:57:23;;;;;;;14.33;13.05;;;;;;;34.27;48.39;100884.52;1619417;88;21090;-48
2021/07/18 08:59:50;;;;;;;14.93;12.75;;;;;;;34.32;48.57;100887.49;1638153;87;21040;-52
2021/07/18 09:02:18;;;;;;;15.25;13.70;;;;;;;34.35;48.53;100879.04;1638004;86;21496;-47
2021/07/18 09:04:45;;;;;;;14.40;12.95;;;;;;;34.37;48.46;100882.39;1614691;88;21094;-48
2021/07/18 09:07:14;;;;;;;14.58;13.25;;;;;;;34.38;48.51;100878.15;1630647;86;21555;-48
2021/07/18 09:09:45;;;;;;;15.15;13.65;;;;;;;34.41;48.56;100878.30;1632029;86;21039;-46
2021/07/18 09:12:12;;;;;;;14.47;12.98;;;;;;;34.43;48.44;100881.16;1637651;87;21016;-48
2021/07/18 09:14:42;;;;;;;14.40;12.82;;;;;;;34.46;48.37;100880.45;1577958;87;21478;-47
2021/07/18 09:17:12;;;;;;;13.90;12.50;;;;;;;34.47;48.23;100876.72;1631082;86;21139;-49
2021/07/18 09:19:41;;;;;;;13.95;12.53;;;;;;;34.61;47.98;100866.45;1630559;87;21008;-47
2021/07/18 09:22:20;;;;;;;14.83;13.28;;;;;;;34.69;48.00;100869.91;1629701;86;20971;-48
2021/07/18 09:24:55;;;;;;;16.20;12.55;;;;;;;34.69;48.11;100872.62;1610463;87;21072;-49
2021/07/18 09:27:29;;;;;;;14.45;12.98;;;;;;;34.73;48.29;100873.08;1593146;88;21626;-48
2021/07/18 09:30:19;;;;;;;13.75;12.35;;;;;;;34.75;48.28;100865.11;1641676;86;21600;-52
2021/07/18 09:32:47;;;;;;;17.60;13.22;;;;;;;34.79;48.33;100867.77;1582202;88;21053;-49
2021/07/18 09:35:17;;;;;;;16.27;12.95;;;;;;;34.82;48.23;100865.20;1618435;87;21103;-47
2021/07/18 09:37:47;;;;;;;16.57;13.72;;;;;;;34.85;48.09;100862.14;1604742;88;21564;-50
2021/07/18 09:40:22;;;;;;;14.30;12.68;;;;;;;34.85;48.02;100860.26;1532673;92;21073;-46
2021/07/18 09:43:01;;;;;;;16.27;12.88;;;;;;;34.88;48.03;100869.36;1545713;91;21134;-47
2021/07/18 09:45:30;;;;;;;15.98;13.32;;;;;;;34.88;47.84;100863.95;1550666;91;21192;-48
2021/07/18 09:48:09;;;;;;;14.58;13.05;;;;;;;34.88;47.95;100869.86;1550649;91;21145;-48
2021/07/18 09:50:44;;;;;;;14.13;12.78;;;;;;;34.86;48.13;100868.70;1525079;92;21907;-47
2021/07/18 09:53:17;;;;;;;14.50;13.00;;;;;;;34.86;48.29;100862.45;1530520;92;21665;-47
2021/07/18 09:56:10;;;;;;;16.15;13.88;;;;;;;34.86;48.34;100872.77;1520853;92;21079;-50
2021/07/18 09:58:39;;;;;;;15.45;12.82;;;;;;;34.86;48.37;100863.30;1533026;93;21541;-49
2021/07/18 10:01:08;;;;;;;13.58;12.40;;;;;;;34.88;48.41;100865.30;1524796;91;21570;-46
2021/07/18 10:03:35;;;;;;;13.58;12.10;;;;;;;34.90;47.97;100863.76;1524680;92;21427;-47
2021/07/18 10:06:11;;;;;;;17.00;11.75;;;;;;;34.92;48.04;100859.84;1520896;92;21166;-49
2021/07/18 10:08:54;;;;;;;13.75;12.50;;;;;;;34.93;47.58;100860.16;1530000;92;21159;-51
2021/07/18 10:11:26;;;;;;;13.15;11.97;;;;;;;34.94;47.61;100860.50;1482396;95;21178;-49
2021/07/18 10:13:54;;;;;;;13.48;12.20;;;;;;;34.97;47.57;100864.16;1484665;95;21167;-50
2021/07/18 10:16:23;;;;;;;12.40;11.40;;;;;;;34.98;47.78;100867.73;1482806;94;21127;-50
2021/07/18 10:18:52;;;;;;;13.60;12.18;;;;;;;34.99;47.68;100868.93;1483201;94;21606;-50
2021/07/18 10:21:21;;;;;;;16.60;12.80;;;;;;;35.00;47.63;100863.83;1482899;94;21074;-48
2021/07/18 10:23:50;;;;;;;12.93;11.55;;;;;;;35.00;47.81;100869.23;1482943;95;21176;-48
2021/07/18 10:26:18;;;;;;;18.17;11.50;;;;;;;35.00;47.55;100866.53;1474081;95;21122;-47
2021/07/18 10:28:50;;;;;;;12.70;11.40;;;;;;;35.01;47.71;100864.17;1484933;95;21083;-49
2021/07/18 10:31:26;;;;;;;11.88;10.68;;;;;;;35.02;47.93;100863.13;1448582;96;21173;-49
2021/07/18 10:33:54;;;;;;;13.90;10.60;;;;;;;35.03;47.60;100864.81;1484316;95;21196;-51
2021/07/18 10:36:24;;;;;;;12.10;10.93;;;;;;;35.06;47.58;100862.22;1488782;93;21132;-49
2021/07/18 10:38:52;;;;;;;13.40;10.68;;;;;;;35.09;47.69;100862.70;1515702;93;21159;-50
2021/07/18 10:41:44;;;;;;;12.47;11.12;;;;;;;35.13;46.97;100859.95;1527645;92;21150;-49
2021/07/18 10:44:15;;;;;;;12.03;10.93;;;;;;;35.17;46.90;100857.19;1521903;93;21103;-48
2021/07/18 10:46:49;;;;;;;12.35;11.15;;;;;;;35.21;47.11;100854.93;1526804;90;21104;-49
2021/07/18 10:49:16;;;;;;;13.62;11.43;;;;;;;35.22;46.75;100853.92;1561564;91;21037;-49
2021/07/18 10:51:50;;;;;;;14.10;11.28;;;;;;;35.26;46.91;100859.78;1538039;92;21165;-50
2021/07/18 10:54:21;;;;;;;12.55;11.30;;;;;;;35.26;46.80;100853.86;1560783;91;21039;-49
2021/07/18 10:56:52;;;;;;;12.58;11.48;;;;;;;35.29;46.62;100859.38;1546035;92;21143;-48
2021/07/18 10:59:42;;;;;;;10.60;9.60;;;;;;;35.29;46.38;100852.62;1563622;90;21065;-47
2021/07/18 11:02:15;;;;;;;12.13;10.93;;;;;;;35.29;46.41;100851.27;1525208;92;21088;-49
2021/07/18 11:04:52;;;;;;;12.18;10.93;;;;;;;35.25;46.01;100847.27;1566504;90;21057;-49
2021/07/18 11:07:25;;;;;;;11.53;10.32;;;;;;;35.23;46.53;100846.62;1576876;89;21045;-49
2021/07/18 11:09:56;;;;;;;14.38;10.43;;;;;;;35.18;46.24;100850.73;1584591;89;21060;-48
2021/07/18 11:12:31;;;;;;;;;;;;;;;35.17;46.46;100843.66;1568045;91;21631;-51
2021/07/18 11:15:30;;;;;;;11.43;10.35;;;;;;;35.19;46.65;100844.31;1592942;89;20127;-47